createdAt,value
2018-09-17T00:01:37.246Z,6.33
2018-09-17T00:04:06.262Z,5.53
2018-09-17T00:06:34.817Z,7.00
2018-09-17T00:09:03.383Z,5.90
2018-09-17T00:11:31.896Z,5.73
2018-09-17T00:14:00.402Z,6.20
2018-09-17T00:16:28.820Z,5.73
2018-09-17T00:18:57.373Z,5.90
2018-09-17T00:21:25.876Z,6.20
2018-09-17T00:23:54.289Z,5.73
2018-09-17T00:26:22.840Z,6.57
2018-09-17T00:28:51.259Z,6.37
2018-09-17T00:31:19.702Z,7.23
2018-09-17T00:33:48.234Z,6.30
2018-09-17T00:36:16.775Z,6.83
2018-09-17T00:38:45.256Z,6.47
2018-09-17T00:41:13.669Z,5.57
2018-09-17T00:43:42.150Z,6.37
2018-09-17T00:46:10.574Z,6.67
2018-09-17T00:48:39.060Z,7.70
2018-09-17T00:51:07.571Z,6.50
2018-09-17T00:53:36.043Z,7.70
2018-09-17T00:56:04.561Z,7.03
2018-09-17T00:58:33.129Z,7.10
2018-09-17T01:01:01.693Z,6.17
2018-09-17T01:03:31.326Z,6.37
2018-09-17T01:05:59.794Z,6.80
2018-09-17T01:08:28.337Z,7.20
2018-09-17T01:10:56.890Z,7.50
2018-09-17T01:13:25.350Z,6.53
2018-09-17T01:15:53.905Z,6.83
2018-09-17T01:18:22.429Z,8.30
2018-09-17T01:20:53.876Z,8.00
2018-09-17T01:23:22.431Z,8.97
2018-09-17T01:25:50.938Z,8.87
2018-09-17T01:28:19.710Z,7.93
2018-09-17T01:30:48.551Z,7.10
2018-09-17T01:33:17.150Z,7.80
2018-09-17T01:35:45.998Z,7.60
2018-09-17T01:38:14.553Z,7.37
2018-09-17T01:40:43.081Z,7.10
2018-09-17T01:43:11.615Z,7.57
2018-09-17T01:45:40.238Z,7.70
2018-09-17T01:48:08.903Z,7.13
2018-09-17T01:50:37.511Z,7.97
2018-09-17T01:53:06.064Z,7.87
2018-09-17T01:55:34.683Z,8.07
2018-09-17T01:58:03.297Z,7.53
2018-09-17T02:00:31.888Z,7.20
2018-09-17T02:03:00.443Z,7.40
2018-09-17T02:05:29.122Z,6.90
2018-09-17T02:07:57.698Z,7.23
2018-09-17T02:10:26.242Z,7.30
2018-09-17T02:12:54.775Z,7.77
2018-09-17T02:15:23.328Z,7.70
2018-09-17T02:17:51.900Z,7.97
2018-09-17T02:20:20.439Z,7.30
2018-09-17T02:22:48.973Z,6.80
2018-09-17T02:25:17.687Z,8.73
2018-09-17T02:27:46.482Z,7.63
2018-09-17T02:30:15.259Z,7.97
2018-09-17T02:32:43.795Z,8.67
2018-09-17T02:35:12.349Z,9.00
2018-09-17T02:37:40.962Z,9.37
2018-09-17T02:40:15.460Z,9.57
2018-09-17T02:42:45.596Z,8.30
2018-09-17T02:45:14.146Z,9.90
2018-09-17T02:47:42.785Z,9.60
2018-09-17T02:50:11.321Z,9.87
2018-09-17T02:52:39.796Z,9.70
2018-09-17T02:55:08.537Z,9.33
2018-09-17T02:57:37.567Z,10.17
2018-09-17T03:00:07.263Z,8.27
2018-09-17T03:02:35.797Z,9.87
2018-09-17T03:05:04.429Z,9.80
2018-09-17T03:07:32.929Z,9.63
2018-09-17T03:10:01.514Z,9.67
2018-09-17T03:12:30.039Z,9.57
2018-09-17T03:15:04.741Z,10.00
2018-09-17T03:17:33.331Z,8.37
2018-09-17T03:20:02.056Z,8.77
2018-09-17T03:22:30.681Z,8.60
2018-09-17T03:24:59.389Z,8.30
2018-09-17T03:27:27.911Z,7.80
2018-09-17T03:29:56.485Z,8.07
2018-09-17T03:32:25.082Z,9.27
2018-09-17T03:34:53.717Z,7.70
2018-09-17T03:37:26.000Z,9.40
2018-09-17T03:39:54.684Z,8.50
2018-09-17T03:42:23.230Z,8.30
2018-09-17T03:44:51.818Z,7.63
2018-09-17T03:47:20.473Z,7.80
2018-09-17T03:49:49.221Z,8.03
2018-09-17T03:52:17.816Z,7.47
2018-09-17T03:54:46.403Z,8.30
2018-09-17T03:57:14.925Z,8.37
2018-09-17T03:59:43.391Z,8.30
2018-09-17T04:02:11.930Z,7.67
2018-09-17T04:04:40.781Z,9.03
2018-09-17T04:07:09.809Z,8.10
2018-09-17T04:09:38.558Z,9.57
2018-09-17T04:12:07.149Z,8.50
2018-09-17T04:14:35.720Z,10.00
2018-09-17T04:17:04.265Z,10.00
2018-09-17T04:19:32.912Z,9.53
2018-09-17T04:22:01.494Z,10.03
2018-09-17T04:24:29.994Z,9.80
2018-09-17T04:26:58.559Z,9.73
2018-09-17T04:29:27.117Z,9.90
2018-09-17T04:31:55.691Z,10.53
2018-09-17T04:34:24.764Z,8.80
2018-09-17T04:36:53.375Z,9.47
2018-09-17T04:39:23.486Z,9.17
2018-09-17T04:41:51.976Z,10.13
2018-09-17T04:44:20.535Z,10.70
2018-09-17T04:46:49.062Z,9.63
2018-09-17T04:49:17.473Z,7.60
2018-09-17T04:51:46.074Z,9.40
2018-09-17T04:54:14.832Z,8.53
2018-09-17T04:56:43.564Z,8.47
2018-09-17T04:59:12.149Z,8.60
2018-09-17T05:01:40.733Z,8.63
2018-09-17T05:04:09.230Z,8.43
2018-09-17T05:06:37.806Z,8.90
2018-09-17T05:09:08.299Z,7.83
2018-09-17T05:11:36.804Z,7.90
2018-09-17T05:14:05.289Z,8.23
2018-09-17T05:16:33.753Z,8.03
2018-09-17T05:19:02.193Z,7.87
2018-09-17T05:21:30.671Z,8.27
2018-09-17T05:23:59.169Z,8.00
2018-09-17T05:26:27.605Z,8.97
2018-09-17T05:28:56.119Z,8.40
2018-09-17T05:31:24.713Z,8.23
2018-09-17T05:33:53.479Z,10.13
2018-09-17T05:36:21.984Z,9.17
2018-09-17T05:38:50.455Z,8.43
2018-09-17T05:41:19.004Z,8.73
2018-09-17T05:43:47.928Z,9.47
2018-09-17T05:46:16.416Z,8.43
2018-09-17T05:48:44.992Z,9.63
2018-09-17T05:51:13.515Z,9.30
2018-09-17T05:53:41.962Z,8.70
2018-09-17T05:56:10.615Z,9.43
2018-09-17T05:58:39.171Z,8.87
2018-09-17T06:01:07.617Z,8.73
2018-09-17T06:03:36.109Z,8.10
2018-09-17T06:06:04.753Z,9.20
2018-09-17T06:08:33.213Z,8.20
2018-09-17T06:11:01.792Z,8.57
2018-09-17T06:13:30.276Z,8.27
2018-09-17T06:15:58.822Z,9.00
2018-09-17T06:18:27.446Z,8.53
2018-09-17T06:20:56.065Z,8.00
2018-09-17T06:23:24.636Z,8.20
2018-09-17T06:25:52.969Z,8.00
2018-09-17T06:28:21.357Z,8.60
2018-09-17T06:30:49.819Z,8.13
2018-09-17T06:33:18.212Z,7.53
2018-09-17T06:35:46.687Z,8.53
2018-09-17T06:38:15.159Z,8.13
2018-09-17T06:40:43.632Z,8.90
2018-09-17T06:43:12.146Z,8.50
2018-09-17T06:45:40.554Z,9.30
2018-09-17T06:48:09.004Z,9.20
2018-09-17T06:50:37.469Z,8.70
2018-09-17T06:53:05.944Z,10.03
2018-09-17T06:55:34.863Z,9.60
2018-09-17T06:58:03.402Z,8.57
2018-09-17T07:00:32.001Z,8.90
2018-09-17T07:03:00.373Z,7.90
2018-09-17T07:05:28.864Z,8.03
2018-09-17T07:07:57.435Z,6.80
2018-09-17T07:10:25.843Z,7.03
2018-09-17T07:12:54.758Z,6.03
2018-09-17T07:15:23.470Z,6.10
2018-09-17T07:17:51.872Z,6.50
2018-09-17T07:20:20.289Z,6.70
2018-09-17T07:22:48.658Z,6.57
2018-09-17T07:25:17.155Z,7.10
2018-09-17T07:27:45.527Z,6.90
2018-09-17T07:30:14.033Z,6.63
2018-09-17T07:32:42.436Z,6.53
2018-09-17T07:35:11.043Z,7.00
2018-09-17T07:37:39.647Z,6.40
2018-09-17T07:40:08.059Z,5.67
2018-09-17T07:42:36.481Z,5.80
2018-09-17T07:45:05.425Z,5.07
2018-09-17T07:47:34.027Z,4.83
2018-09-17T07:50:02.448Z,5.00
2018-09-17T07:52:31.188Z,4.60
2018-09-17T07:54:59.723Z,5.40
2018-09-17T07:57:28.232Z,5.00
2018-09-17T07:59:56.684Z,5.20
2018-09-17T08:02:25.072Z,4.30
2018-09-17T08:04:53.500Z,5.27
2018-09-17T08:07:21.938Z,4.80
2018-09-17T08:09:50.437Z,5.43
2018-09-17T08:12:18.869Z,4.57
2018-09-17T08:14:47.373Z,4.83
2018-09-17T08:17:15.883Z,4.42
2018-09-17T08:19:44.554Z,4.87
2018-09-17T08:22:12.966Z,4.00
2018-09-17T08:24:41.820Z,4.53
2018-09-17T08:27:10.239Z,3.93
2018-09-17T08:29:38.620Z,4.10
2018-09-17T08:32:07.079Z,4.70
2018-09-17T08:34:35.503Z,4.97
2018-09-17T08:37:03.925Z,5.43
2018-09-17T08:39:32.403Z,5.30
2018-09-17T08:42:00.957Z,5.50
2018-09-17T08:44:29.722Z,5.90
2018-09-17T08:46:58.355Z,6.03
2018-09-17T08:49:27.163Z,5.33
2018-09-17T08:51:55.572Z,4.77
2018-09-17T08:54:24.040Z,5.40
2018-09-17T08:57:05.708Z,6.00
2018-09-17T08:59:39.528Z,6.50
2018-09-17T09:02:13.436Z,5.67
2018-09-17T09:04:47.155Z,4.90
2018-09-17T09:08:21.678Z,4.63
2018-09-17T09:10:54.356Z,4.50
2018-09-17T09:13:28.063Z,4.80
2018-09-17T09:15:56.520Z,4.07
2018-09-17T09:18:25.159Z,4.30
2018-09-17T09:20:53.623Z,5.00
2018-09-17T09:23:22.040Z,4.30
2018-09-17T09:25:50.500Z,3.93
2018-09-17T09:28:18.983Z,3.63
2018-09-17T09:30:47.821Z,3.85
2018-09-17T09:33:16.353Z,3.37
2018-09-17T09:35:44.859Z,3.27
2018-09-17T09:38:13.363Z,3.42
2018-09-17T09:40:42.404Z,3.87
2018-09-17T09:43:10.944Z,4.30
2018-09-17T09:45:39.467Z,4.90
2018-09-17T09:48:07.894Z,5.70
2018-09-17T09:50:36.339Z,6.37
2018-09-17T09:53:05.003Z,6.30
2018-09-17T09:55:33.397Z,6.33
2018-09-17T09:58:02.044Z,6.90
2018-09-17T10:00:35.994Z,8.47
2018-09-17T10:03:09.900Z,8.23
2018-09-17T10:05:38.284Z,8.00
2018-09-17T10:08:07.151Z,6.33
2018-09-17T10:10:41.000Z,6.17
2018-09-17T10:13:14.945Z,6.37
2018-09-17T10:15:49.984Z,6.27
2018-09-17T10:18:24.055Z,5.67
2018-09-17T10:20:52.481Z,6.17
2018-09-17T10:23:20.903Z,5.93
2018-09-17T10:25:49.374Z,4.97
2018-09-17T10:28:17.795Z,3.87
2018-09-17T10:30:46.288Z,3.80
2018-09-17T10:33:14.766Z,4.53
2018-09-17T10:35:43.111Z,4.20
2018-09-17T10:38:11.600Z,4.70
2018-09-17T10:40:40.845Z,3.63
2018-09-17T10:43:09.293Z,3.93
2018-09-17T10:45:38.057Z,3.97
2018-09-17T10:48:06.908Z,3.40
2018-09-17T10:50:35.329Z,4.10
2018-09-17T10:53:03.839Z,3.83
2018-09-17T10:55:32.467Z,4.87
2018-09-17T10:58:01.098Z,3.93
2018-09-17T11:00:29.631Z,3.73
2018-09-17T11:02:58.179Z,3.50
2018-09-17T11:05:26.683Z,3.87
2018-09-17T11:07:55.360Z,3.70
2018-09-17T11:10:23.741Z,3.10
2018-09-17T11:12:52.436Z,3.27
2018-09-17T11:15:20.919Z,3.43
2018-09-17T11:17:49.319Z,3.00
2018-09-17T11:20:17.760Z,2.73
2018-09-17T11:22:46.530Z,3.37
2018-09-17T11:25:15.378Z,3.70
2018-09-17T11:27:43.856Z,3.00
2018-09-17T11:30:12.503Z,3.30
2018-09-17T11:32:41.357Z,4.23
2018-09-17T11:35:09.990Z,3.50
2018-09-17T11:37:38.428Z,3.93
2018-09-17T11:40:06.898Z,3.20
2018-09-17T11:42:35.411Z,3.60
2018-09-17T11:45:03.953Z,3.20
2018-09-17T11:47:32.682Z,3.37
2018-09-17T11:50:01.194Z,3.73
2018-09-17T11:52:29.776Z,3.87
2018-09-17T11:54:58.646Z,3.77
2018-09-17T11:57:27.750Z,3.27
2018-09-17T11:59:56.655Z,3.33
2018-09-17T12:02:30.957Z,4.10
2018-09-17T12:05:05.456Z,2.90
2018-09-17T12:07:39.701Z,2.70
2018-09-17T12:10:09.195Z,2.90
2018-09-17T12:12:41.136Z,3.23
2018-09-17T12:15:10.080Z,3.50
2018-09-17T12:17:39.408Z,2.70
2018-09-17T12:20:09.080Z,3.20
2018-09-17T12:22:38.122Z,3.27
2018-09-17T12:25:06.671Z,2.80
2018-09-17T12:27:35.095Z,2.97
2018-09-17T12:30:04.490Z,2.20
2018-09-17T12:32:34.463Z,2.13
2018-09-17T12:35:03.499Z,2.30
2018-09-17T12:37:32.339Z,1.90
2018-09-17T12:40:00.886Z,1.80
2018-09-17T12:42:33.584Z,2.30
2018-09-17T12:45:02.139Z,2.20
2018-09-17T12:47:31.769Z,2.07
2018-09-17T12:50:01.151Z,2.20
2018-09-17T12:52:29.941Z,2.30
2018-09-17T12:54:58.942Z,2.43
2018-09-17T12:57:27.938Z,3.27
2018-09-17T12:59:56.371Z,2.50
2018-09-17T13:02:24.915Z,2.77
2018-09-17T13:04:53.857Z,2.37
2018-09-17T13:07:22.959Z,2.33
2018-09-17T13:09:51.437Z,2.50
2018-09-17T13:12:20.560Z,2.60
2018-09-17T13:14:49.145Z,2.47
2018-09-17T13:17:18.083Z,2.30
2018-09-17T13:19:46.796Z,2.57
2018-09-17T13:22:15.716Z,2.50
2018-09-17T13:24:51.319Z,2.40
2018-09-17T13:27:20.711Z,3.27
2018-09-17T13:29:49.267Z,2.70
2018-09-17T13:32:17.955Z,2.47
2018-09-17T13:34:46.710Z,2.30
2018-09-17T13:37:15.762Z,2.77
2018-09-17T13:39:44.521Z,2.30
2018-09-17T13:42:13.062Z,2.80
2018-09-17T13:44:41.908Z,2.20
2018-09-17T13:47:10.650Z,2.80
2018-09-17T13:49:39.212Z,2.50
2018-09-17T13:52:08.175Z,2.40
2018-09-17T13:54:36.850Z,2.33
2018-09-17T13:57:05.411Z,3.17
2018-09-17T13:59:34.260Z,2.53
2018-09-17T14:02:02.727Z,2.73
2018-09-17T14:04:31.660Z,2.63
2018-09-17T14:07:00.165Z,2.40
2018-09-17T14:09:29.217Z,3.40
2018-09-17T14:11:58.380Z,2.40
2018-09-17T14:14:27.197Z,2.10
2018-09-17T14:16:55.861Z,2.20
2018-09-17T14:19:24.563Z,3.23
2018-09-17T14:21:53.079Z,2.70
2018-09-17T14:24:21.519Z,2.37
2018-09-17T14:26:50.616Z,2.60
2018-09-17T14:29:19.440Z,3.17
2018-09-17T14:31:53.587Z,2.53
2018-09-17T14:34:22.076Z,2.53
2018-09-17T14:36:50.980Z,2.40
2018-09-17T14:39:19.407Z,2.70
2018-09-17T14:41:47.977Z,2.87
2018-09-17T14:44:16.826Z,2.50
2018-09-17T14:46:45.344Z,2.60
2018-09-17T14:49:14.000Z,2.67
2018-09-17T14:51:42.769Z,3.17
2018-09-17T14:54:11.521Z,2.33
2018-09-17T14:56:39.926Z,2.07
2018-09-17T14:59:08.318Z,2.87
2018-09-17T15:01:37.439Z,2.50
2018-09-17T15:04:05.967Z,2.67
2018-09-17T15:06:34.568Z,2.30
2018-09-17T15:09:03.221Z,3.00
2018-09-17T15:11:31.669Z,2.43
2018-09-17T15:14:00.544Z,3.13
2018-09-17T15:16:29.180Z,2.60
2018-09-17T15:18:57.500Z,2.90
2018-09-17T15:21:25.938Z,2.97
2018-09-17T15:23:54.413Z,2.50
2018-09-17T15:26:23.349Z,2.50
2018-09-17T15:28:51.856Z,3.27
2018-09-17T15:31:20.759Z,2.37
2018-09-17T15:33:49.224Z,2.17
2018-09-17T15:36:18.039Z,2.40
2018-09-17T15:38:46.631Z,2.57
2018-09-17T15:41:15.404Z,3.10
2018-09-17T15:43:44.195Z,3.10
2018-09-17T15:46:12.750Z,3.10
2018-09-17T15:48:41.340Z,3.00
2018-09-17T15:51:09.885Z,3.00
2018-09-17T15:53:38.286Z,3.20
2018-09-17T15:56:07.055Z,2.77
2018-09-17T15:58:35.452Z,3.37
2018-09-17T16:01:03.991Z,3.20
2018-09-17T16:03:32.369Z,3.03
2018-09-17T16:06:00.921Z,2.90
2018-09-17T16:08:29.376Z,3.03
2018-09-17T16:10:58.020Z,2.90
2018-09-17T16:13:26.421Z,2.67
2018-09-17T16:15:55.791Z,2.80
2018-09-17T16:18:24.215Z,3.60
2018-09-17T16:20:52.615Z,2.93
2018-09-17T16:23:20.992Z,3.00
2018-09-17T16:25:49.367Z,3.10
2018-09-17T16:28:17.955Z,2.70
2018-09-17T16:30:46.435Z,2.90
2018-09-17T16:33:14.875Z,3.10
2018-09-17T16:35:43.220Z,3.40
2018-09-17T16:38:11.703Z,5.00
2018-09-17T16:40:40.108Z,2.60
2018-09-17T16:43:08.583Z,2.77
2018-09-17T16:45:37.161Z,2.87
2018-09-17T16:48:05.716Z,2.40
2018-09-17T16:50:34.167Z,2.93
2018-09-17T16:53:02.766Z,3.10
2018-09-17T16:55:31.182Z,3.37
2018-09-17T16:57:59.648Z,2.70
2018-09-17T17:00:28.174Z,2.63
2018-09-17T17:02:56.615Z,2.97
2018-09-17T17:05:25.395Z,2.87
2018-09-17T17:07:53.823Z,3.10
2018-09-17T17:10:22.484Z,3.57
2018-09-17T17:12:50.907Z,2.50
2018-09-17T17:15:19.347Z,2.97
2018-09-17T17:17:47.947Z,3.10
2018-09-17T17:20:16.417Z,3.27
2018-09-17T17:22:44.920Z,3.30
2018-09-17T17:25:13.392Z,3.30
2018-09-17T17:27:41.976Z,3.90
2018-09-17T17:30:10.627Z,3.60
2018-09-17T17:32:39.239Z,3.40
2018-09-17T17:35:07.929Z,3.40
2018-09-17T17:37:36.467Z,3.67
2018-09-17T17:40:05.676Z,3.77
2018-09-17T17:42:34.169Z,3.60
2018-09-17T17:45:02.667Z,3.60
2018-09-17T17:47:31.245Z,3.50
2018-09-17T17:49:59.783Z,3.60
2018-09-17T17:52:28.282Z,4.70
2018-09-17T17:54:56.816Z,3.40
2018-09-17T17:57:25.632Z,4.17
2018-09-17T17:59:54.128Z,3.70
2018-09-17T18:02:22.560Z,3.53
2018-09-17T18:04:51.040Z,3.73
2018-09-17T18:07:19.480Z,4.00
2018-09-17T18:09:48.752Z,4.33
2018-09-17T18:12:17.180Z,4.37
2018-09-17T18:14:45.690Z,4.30
2018-09-17T18:17:15.899Z,4.77
2018-09-17T18:19:44.378Z,4.70
2018-09-17T18:22:12.851Z,4.80
2018-09-17T18:24:41.298Z,4.70
2018-09-17T18:27:09.903Z,4.50
2018-09-17T18:29:38.371Z,4.13
2018-09-17T18:32:06.961Z,3.80
2018-09-17T18:34:35.416Z,4.90
2018-09-17T18:37:03.877Z,4.23
2018-09-17T18:39:32.416Z,3.63
2018-09-17T18:42:00.875Z,4.17
2018-09-17T18:44:29.355Z,4.40
2018-09-17T18:46:57.846Z,4.47
2018-09-17T18:49:26.357Z,3.40
2018-09-17T18:51:54.932Z,4.30
2018-09-17T18:54:23.492Z,3.70
2018-09-17T18:56:52.194Z,4.40
2018-09-17T18:59:20.648Z,3.93
2018-09-17T19:01:49.195Z,3.77
2018-09-17T19:04:17.677Z,4.03
2018-09-17T19:06:46.266Z,4.00
2018-09-17T19:09:14.954Z,5.10
2018-09-17T19:11:43.543Z,3.60
2018-09-17T19:14:17.333Z,4.57
2018-09-17T19:16:51.615Z,4.03
2018-09-17T19:19:20.435Z,4.33
2018-09-17T19:21:54.559Z,4.33
2018-09-17T19:24:22.922Z,4.20
2018-09-17T19:26:51.439Z,4.63
2018-09-17T19:29:21.386Z,3.87
2018-09-17T19:31:50.000Z,4.20
2018-09-17T19:34:18.529Z,4.10
2018-09-17T19:36:47.272Z,4.60
2018-09-17T19:39:21.100Z,4.57
2018-09-17T19:41:49.777Z,4.43
2018-09-17T19:44:18.301Z,4.50
2018-09-17T19:46:46.753Z,4.70
2018-09-17T19:49:15.209Z,3.60
2018-09-17T19:51:49.244Z,5.53
2018-09-17T19:54:17.804Z,5.07
2018-09-17T19:56:46.164Z,4.80
2018-09-17T19:59:20.023Z,5.20
2018-09-17T20:01:48.566Z,4.97
2018-09-17T20:04:22.376Z,4.53
2018-09-17T20:06:50.957Z,4.73
2018-09-17T20:09:19.503Z,5.60
2018-09-17T20:11:48.088Z,5.30
2018-09-17T20:14:16.702Z,5.10
2018-09-17T20:16:45.158Z,5.20
2018-09-17T20:19:13.653Z,5.47
2018-09-17T20:21:42.139Z,4.87
2018-09-17T20:24:10.602Z,4.90
2018-09-17T20:26:39.169Z,6.20
2018-09-17T20:29:07.689Z,6.13
2018-09-17T20:31:36.200Z,4.80
2018-09-17T20:34:04.715Z,5.80
2018-09-17T20:36:33.177Z,5.43
2018-09-17T20:39:01.644Z,5.77
2018-09-17T20:41:30.210Z,6.90
2018-09-17T20:43:58.678Z,5.87
2018-09-17T20:46:27.143Z,5.77
2018-09-17T20:48:55.688Z,6.53
2018-09-17T20:51:24.095Z,5.50
2018-09-17T20:53:52.549Z,5.63
2018-09-17T20:56:21.164Z,5.47
2018-09-17T20:58:49.614Z,6.00
2018-09-17T21:01:18.143Z,5.50
2018-09-17T21:03:46.601Z,5.20
2018-09-17T21:06:15.087Z,4.50
2018-09-17T21:08:43.533Z,5.23
2018-09-17T21:11:11.960Z,4.73
2018-09-17T21:13:40.674Z,5.57
2018-09-17T21:16:09.202Z,4.50
2018-09-17T21:18:37.767Z,5.43
2018-09-17T21:21:06.303Z,5.27
2018-09-17T21:23:34.766Z,4.67
2018-09-17T21:26:03.200Z,5.50
2018-09-17T21:28:31.628Z,4.43
2018-09-17T21:31:00.238Z,4.67
2018-09-17T21:33:28.819Z,5.17
2018-09-17T21:35:57.318Z,4.43
2018-09-17T21:38:25.757Z,4.20
2018-09-17T21:40:54.386Z,4.23
2018-09-17T21:43:23.001Z,4.97
2018-09-17T21:45:51.471Z,4.00
2018-09-17T21:48:20.132Z,4.30
2018-09-17T21:50:48.573Z,4.77
2018-09-17T21:53:17.028Z,4.60
2018-09-17T21:55:45.490Z,4.73
2018-09-17T21:58:13.966Z,5.00
2018-09-17T22:00:47.850Z,4.90
2018-09-17T22:03:16.453Z,5.27
2018-09-17T22:05:45.040Z,4.40
2018-09-17T22:08:13.600Z,4.80
2018-09-17T22:10:42.131Z,4.90
2018-09-17T22:13:10.723Z,5.03
2018-09-17T22:15:39.262Z,4.23
2018-09-17T22:18:07.792Z,5.13
2018-09-17T22:20:36.327Z,5.20
2018-09-17T22:23:04.856Z,4.63
2018-09-17T22:25:33.383Z,5.20
2018-09-17T22:28:01.991Z,4.47
2018-09-17T22:30:30.530Z,4.33
2018-09-17T22:32:59.221Z,4.43
2018-09-17T22:35:27.965Z,4.37
2018-09-17T22:37:56.757Z,4.43
2018-09-17T22:40:25.563Z,3.90
2018-09-17T22:42:54.021Z,5.27
2018-09-17T22:45:22.528Z,4.33
2018-09-17T22:47:51.032Z,4.70
2018-09-17T22:50:19.486Z,4.20
2018-09-17T22:52:47.931Z,4.20
2018-09-17T22:55:16.470Z,4.40
2018-09-17T22:57:45.048Z,4.47
2018-09-17T23:00:13.500Z,4.40
2018-09-17T23:02:42.062Z,4.13
2018-09-17T23:05:10.670Z,4.50
2018-09-17T23:07:39.217Z,4.40
2018-09-17T23:10:09.021Z,4.50
2018-09-17T23:12:37.709Z,4.37
2018-09-17T23:15:06.393Z,4.57
2018-09-17T23:17:35.128Z,4.80
2018-09-17T23:20:03.688Z,4.13
2018-09-17T23:22:32.240Z,4.00
2018-09-17T23:39:17.388Z,4.10
2018-09-17T23:41:45.790Z,4.53
2018-09-17T23:44:14.257Z,4.20
2018-09-17T23:46:42.825Z,4.07
2018-09-17T23:49:11.372Z,4.27
2018-09-17T23:51:39.868Z,4.30
2018-09-17T23:54:08.384Z,4.70
2018-09-17T23:56:36.904Z,4.17
2018-09-17T23:59:05.443Z,4.63
